Time;durP1;ratioP1;P1;durP2;ratioP2;P2;SDS_P1;SDS_P2;PMS_P1;PMS_P2;Temp;Humidity;BMP_temperature;BMP_pressure;BME280_temperature;BME280_humidity;BME280_pressure;Samples;Min_cycle;Max_cycle;Signal;HPM_P1;HPM_P2
2023/11/21 00:01:24;;;;;;;30.43;13.70;;;;;;;7.15;100.00;100961.69;7384854;19;20507;-41
2023/11/21 00:03:55;;;;;;;26.20;12.40;;;;;;;7.01;100.00;100958.28;7362063;19;20427;-41
2023/11/21 00:06:24;;;;;;;30.27;13.07;;;;;;;6.98;100.00;100965.81;7385004;19;20407;-40
2023/11/21 00:08:54;;;;;;;88.77;36.60;;;;;;;6.97;100.00;100974.31;7361448;19;20490;-39
2023/11/21 00:11:25;;;;;;;33.93;13.07;;;;;;;6.77;100.00;100986.78;7383430;19;20416;-40
2023/11/21 00:13:54;;;;;;;34.70;14.00;;;;;;;6.68;100.00;100991.38;7359318;19;21066;-41
2023/11/21 00:16:26;;;;;;;28.60;13.40;;;;;;;6.67;100.00;101020.38;7384654;19;20428;-40
2023/11/21 00:18:56;;;;;;;29.80;12.50;;;;;;;6.74;100.00;101032.78;7362476;19;20506;-41
2023/11/21 00:21:26;;;;;;;80.77;32.93;;;;;;;6.74;100.00;101048.19;7385035;19;20415;-42
2023/11/21 00:23:56;;;;;;;30.13;13.17;;;;;;;6.58;100.00;101069.41;7362175;19;20431;-39
2023/11/21 00:26:25;;;;;;;26.60;12.30;;;;;;;6.57;100.00;101089.03;7385596;19;20810;-42
2023/11/21 00:28:56;;;;;;;26.10;13.70;;;;;;;6.59;100.00;101091.69;7361649;19;20933;-39
2023/11/21 00:31:28;;;;;;;74.23;29.03;;;;;;;6.65;100.00;101102.34;7383989;19;20967;-40
2023/11/21 00:33:57;;;;;;;30.97;13.40;;;;;;;6.67;100.00;101115.25;7362432;19;20419;-41
2023/11/21 00:36:27;;;;;;;35.80;17.20;;;;;;;6.58;100.00;101115.56;7390005;19;20482;-41
2023/11/21 00:38:57;;;;;;;78.60;30.57;;;;;;;6.45;100.00;101121.56;7367932;19;21096;-42
2023/11/21 00:41:27;;;;;;;48.43;20.93;;;;;;;6.47;100.00;101137.94;7389900;19;20428;-41
2023/11/21 00:43:57;;;;;;;28.97;13.00;;;;;;;6.32;100.00;101138.72;7374389;19;20422;-42
2023/11/21 00:46:29;;;;;;;25.87;11.90;;;;;;;6.37;100.00;101136.47;7400449;19;20411;-41
2023/11/21 00:48:59;;;;;;;49.20;19.67;;;;;;;6.46;100.00;101131.06;7375828;19;21285;-41
2023/11/21 00:51:28;;;;;;;32.80;14.80;;;;;;;6.39;100.00;101129.75;7397206;19;20403;-42
2023/11/21 00:53:58;;;;;;;31.60;14.37;;;;;;;6.40;100.00;101128.09;7374723;19;20423;-40
2023/11/21 00:56:28;;;;;;;38.57;14.17;;;;;;;6.29;100.00;101122.25;7396920;19;20427;-44
2023/11/21 00:58:57;;;;;;;44.80;18.60;;;;;;;6.19;100.00;101125.88;7374717;19;20427;-45
2023/11/21 01:01:29;;;;;;;42.03;14.93;;;;;;;6.19;100.00;101123.31;7397762;19;20400;-40
2023/11/21 01:03:59;;;;;;;33.57;14.27;;;;;;;6.25;100.00;101125.41;7373490;19;20954;-42
2023/11/21 01:06:29;;;;;;;39.63;18.37;;;;;;;6.29;100.00;101128.28;7397481;19;20891;-41
2023/11/21 01:08:59;;;;;;;28.60;14.30;;;;;;;6.25;100.00;101120.28;7373692;19;20963;-45
2023/11/21 01:11:29;;;;;;;34.63;14.83;;;;;;;6.26;100.00;101125.50;7396259;19;20912;-42
2023/11/21 01:13:59;;;;;;;25.07;11.57;;;;;;;6.17;100.00;101114.66;7372030;19;20494;-43
2023/11/21 01:16:32;;;;;;;20.90;10.40;;;;;;;6.16;100.00;101107.78;7399399;19;20406;-41
2023/11/21 01:19:02;;;;;;;32.43;14.00;;;;;;;6.22;100.00;101111.59;7374793;19;20455;-40
2023/11/21 01:21:32;;;;;;;24.67;10.93;;;;;;;6.21;100.00;101103.84;7396031;19;20980;-41
2023/11/21 01:24:02;;;;;;;27.17;11.50;;;;;;;6.24;100.00;101093.75;7376196;19;21088;-42
2023/11/21 01:26:32;;;;;;;39.60;17.00;;;;;;;6.23;100.00;101102.25;7398822;19;20779;-42
2023/11/21 01:29:01;;;;;;;27.97;13.37;;;;;;;6.23;100.00;101089.44;7373003;19;20440;-42
2023/11/21 01:31:33;;;;;;;30.73;11.70;;;;;;;6.18;100.00;101089.16;7399039;19;20413;-41
2023/11/21 01:34:04;;;;;;;28.50;12.50;;;;;;;6.19;100.00;101093.47;7374959;19;20974;-40
2023/11/21 01:36:35;;;;;;;25.07;11.47;;;;;;;6.26;100.00;101093.88;7396061;19;20407;-42
2023/11/21 01:39:08;;;;;;;35.53;16.70;;;;;;;6.17;100.00;101089.03;7373439;19;20423;-43
2023/11/21 01:41:38;;;;;;;28.07;12.17;;;;;;;6.03;100.00;101083.91;7393857;19;20387;-42
2023/11/21 01:44:09;;;;;;;28.40;12.90;;;;;;;6.03;100.00;101077.88;7374051;19;20792;-41
2023/11/21 01:46:41;;;;;;;26.13;12.20;;;;;;;6.06;100.00;101073.84;7395154;19;21171;-41
2023/11/21 01:49:13;;;;;;;28.60;11.67;;;;;;;6.06;100.00;101070.41;7373606;19;20431;-41
2023/11/21 01:51:43;;;;;;;25.33;11.80;;;;;;;6.07;100.00;101055.13;7396161;19;20878;-44
2023/11/21 01:54:13;;;;;;;25.50;10.50;;;;;;;6.06;100.00;101050.78;7368039;19;20451;-41
2023/11/21 01:56:48;;;;;;;22.17;10.83;;;;;;;6.00;100.00;101052.06;7396435;19;20407;-43
2023/11/21 01:59:21;;;;;;;32.83;15.33;;;;;;;6.03;100.00;101058.28;7374408;19;21003;-41
2023/11/21 02:01:53;;;;;;;24.80;11.00;;;;;;;6.06;100.00;101050.78;7396531;19;20410;-44
2023/11/21 02:04:23;;;;;;;18.17;9.00;;;;;;;6.03;100.00;101048.03;7373549;19;20419;-40
2023/11/21 02:06:54;;;;;;;16.93;9.50;;;;;;;6.07;100.00;101050.00;7395959;19;21014;-41
2023/11/21 02:09:27;;;;;;;28.03;13.23;;;;;;;6.05;100.00;101041.34;7373256;19;20419;-41
2023/11/21 02:11:58;;;;;;;18.20;9.37;;;;;;;6.01;100.00;101033.31;7396145;19;20444;-42
2023/11/21 02:14:28;;;;;;;15.73;8.30;;;;;;;5.97;100.00;101016.88;7372376;19;20419;-41
2023/11/21 02:17:00;;;;;;;17.07;8.60;;;;;;;5.87;100.00;101010.28;7396148;19;20758;-44
2023/11/21 02:19:32;;;;;;;20.67;9.40;;;;;;;5.89;100.00;101002.69;7372746;19;20443;-44
2023/11/21 02:22:03;;;;;;;22.00;11.60;;;;;;;5.92;100.00;101002.88;7394758;19;20771;-42
2023/11/21 02:24:36;;;;;;;24.07;11.77;;;;;;;5.96;100.00;101002.31;7373607;19;20991;-44
2023/11/21 02:27:06;;;;;;;14.17;7.57;;;;;;;5.96;100.00;101002.31;7394138;19;20403;-43
2023/11/21 02:29:36;;;;;;;39.20;16.33;;;;;;;5.93;100.00;100989.28;7372378;19;20431;-46
2023/11/21 02:32:06;;;;;;;26.10;11.17;;;;;;;5.95;100.00;100987.72;7394209;19;20757;-43
2023/11/21 02:34:35;;;;;;;18.30;9.23;;;;;;;5.90;100.00;100983.97;7373238;19;20490;-43
2023/11/21 02:37:06;;;;;;;15.73;6.90;;;;;;;5.88;100.00;100971.06;7394164;19;20718;-43
2023/11/21 02:39:38;;;;;;;23.20;9.80;;;;;;;5.87;100.00;100965.84;7372434;19;20530;-44
2023/11/21 02:42:08;;;;;;;26.00;11.53;;;;;;;5.81;100.00;100958.66;7394467;19;20423;-43
2023/11/21 02:44:38;;;;;;;17.00;8.00;;;;;;;5.79;100.00;100947.41;7374288;19;20433;-45
2023/11/21 02:47:08;;;;;;;23.27;11.27;;;;;;;5.83;100.00;100948.53;7394476;19;20487;-44
2023/11/21 02:49:38;;;;;;;18.33;8.40;;;;;;;5.85;100.00;100941.81;7372479;19;20415;-45
2023/11/21 02:52:08;;;;;;;16.00;8.00;;;;;;;5.75;100.00;100930.97;7396168;19;20423;-45
2023/11/21 02:54:40;;;;;;;25.43;12.13;;;;;;;5.81;100.00;100925.38;7365594;19;20443;-45
2023/11/21 02:57:10;;;;;;;16.57;8.80;;;;;;;5.78;100.00;100907.22;7391197;19;20428;-42
2023/11/21 02:59:40;;;;;;;23.60;11.23;;;;;;;5.79;100.00;100906.44;7372904;19;20494;-41
2023/11/21 03:02:09;;;;;;;16.50;7.30;;;;;;;5.74;100.00;100898.47;7395228;19;20414;-43
2023/11/21 03:04:39;;;;;;;12.83;7.17;;;;;;;5.68;100.00;100885.28;7372747;19;20436;-44
2023/11/21 03:07:09;;;;;;;14.60;8.43;;;;;;;5.71;100.00;100876.91;7393412;19;20829;-46
2023/11/21 03:09:41;;;;;;;20.00;10.23;;;;;;;5.71;100.00;100869.22;7372382;19;20494;-45
2023/11/21 03:12:12;;;;;;;12.33;7.23;;;;;;;5.64;100.00;100862.84;7393718;19;20407;-43
2023/11/21 03:14:42;;;;;;;18.03;7.97;;;;;;;5.55;100.00;100852.91;7369942;19;20434;-44
2023/11/21 03:17:12;;;;;;;17.03;8.00;;;;;;;5.58;100.00;100854.78;7393197;19;20518;-45
2023/11/21 03:19:41;;;;;;;31.20;15.10;;;;;;;5.60;100.00;100854.09;7371276;19;20423;-44
2023/11/21 03:22:11;;;;;;;16.13;7.93;;;;;;;5.65;100.00;100849.25;7393465;19;20415;-45
2023/11/21 03:24:43;;;;;;;14.43;7.70;;;;;;;5.67;100.00;100847.66;7372290;19;21021;-45
2023/11/21 03:27:13;;;;;;;34.57;15.83;;;;;;;5.64;100.00;100856.03;7393400;19;20436;-45
2023/11/21 03:29:43;;;;;;;23.30;9.77;;;;;;;5.72;100.00;100861.66;7371182;19;20506;-45
2023/11/21 03:32:13;;;;;;;14.00;7.40;;;;;;;5.66;100.00;100858.72;7391892;19;20415;-46
2023/11/21 03:34:57;;;;;;;15.90;7.87;;;;;;;5.67;100.00;100858.81;7370956;19;20435;-45
2023/11/21 03:37:28;;;;;;;13.23;7.90;;;;;;;5.67;100.00;100868.16;7393551;19;20935;-45
2023/11/21 03:40:00;;;;;;;23.33;11.50;;;;;;;5.63;100.00;100872.19;7371323;19;20415;-46
2023/11/21 03:42:30;;;;;;;27.10;10.67;;;;;;;5.57;100.00;100868.34;7393824;19;20483;-43
2023/11/21 03:44:59;;;;;;;20.23;9.30;;;;;;;5.47;100.00;100875.44;7369882;19;20423;-45
2023/11/21 03:47:30;;;;;;;15.47;7.60;;;;;;;5.53;100.00;100883.53;7393183;19;20536;-45
2023/11/21 03:50:00;;;;;;;22.67;9.10;;;;;;;5.53;100.00;100885.19;7369728;19;20436;-45
2023/11/21 03:52:30;;;;;;;23.63;11.40;;;;;;;5.61;100.00;100901.03;7393293;19;20395;-45
2023/11/21 03:55:02;;;;;;;54.37;22.23;;;;;;;5.59;100.00;100905.19;7370385;19;20427;-45
2023/11/21 03:57:32;;;;;;;20.77;9.23;;;;;;;5.61;100.00;100903.59;7392728;19;21058;-44
2023/11/21 04:00:04;;;;;;;15.40;8.20;;;;;;;5.65;100.00;100914.13;7369528;19;20515;-47
2023/11/21 04:02:33;;;;;;;16.90;8.70;;;;;;;5.51;100.00;100914.91;7393073;19;20403;-44
2023/11/21 04:05:04;;;;;;;20.40;10.27;;;;;;;5.60;100.00;100906.94;7369919;19;20959;-47
2023/11/21 04:07:34;;;;;;;17.53;8.63;;;;;;;5.58;100.00;100911.97;7392812;19;20473;-43
2023/11/21 04:10:08;;;;;;;17.90;9.30;;;;;;;5.63;100.00;100913.16;7368295;19;20527;-44
2023/11/21 04:12:38;;;;;;;16.50;8.67;;;;;;;5.56;100.00;100920.31;7393002;19;20406;-44
2023/11/21 04:15:10;;;;;;;30.53;14.50;;;;;;;5.58;100.00;100918.78;7368866;19;20427;-43
2023/11/21 04:17:39;;;;;;;28.07;11.53;;;;;;;5.60;100.00;100922.31;7392800;19;20460;-45
2023/11/21 04:20:10;;;;;;;17.43;8.10;;;;;;;5.61;100.00;100918.97;7369031;19;20438;-44
2023/11/21 04:22:43;;;;;;;21.27;8.37;;;;;;;5.67;100.00;100924.47;7392762;19;20938;-46
2023/11/21 04:25:17;;;;;;;16.27;8.20;;;;;;;5.55;100.00;100927.13;7370061;19;20434;-46
2023/11/21 04:27:47;;;;;;;19.77;8.20;;;;;;;5.54;100.00;100921.13;7393709;19;20470;-43
2023/11/21 04:30:17;;;;;;;35.77;14.10;;;;;;;5.61;100.00;100936.88;7369133;19;20503;-44
2023/11/21 04:32:47;;;;;;;19.60;9.40;;;;;;;5.59;100.00;100941.03;7393603;19;20820;-45
2023/11/21 04:35:16;;;;;;;14.33;7.80;;;;;;;5.52;100.00;100944.84;7369250;19;20514;-46
2023/11/21 04:37:46;;;;;;;20.00;9.43;;;;;;;5.49;100.00;100952.34;7391959;19;21144;-46
2023/11/21 04:40:20;;;;;;;15.90;8.03;;;;;;;5.51;100.00;100949.09;7368301;19;21019;-45
2023/11/21 04:42:50;;;;;;;15.67;7.73;;;;;;;5.64;100.00;100950.75;7392275;19;20407;-46
2023/11/21 04:45:20;;;;;;;15.00;7.90;;;;;;;5.65;100.00;100942.28;7368948;19;20498;-45
2023/11/21 04:47:49;;;;;;;16.50;8.63;;;;;;;5.52;100.00;100930.38;7392207;19;20439;-43
2023/11/21 04:50:20;;;;;;;24.43;7.43;;;;;;;5.58;100.00;100923.91;7368432;19;20426;-41
2023/11/21 04:52:49;;;;;;;13.00;7.37;;;;;;;5.64;100.00;100924.28;7392191;19;20419;-40
2023/11/21 04:55:22;;;;;;;12.33;6.97;;;;;;;5.60;100.00;100932.56;7368471;19;20435;-44
2023/11/21 04:57:51;;;;;;;40.47;18.20;;;;;;;5.70;100.00;100950.28;7391644;19;21092;-45
2023/11/21 05:00:21;;;;;;;18.03;8.17;;;;;;;5.58;100.00;100950.38;7368017;19;20423;-46
2023/11/21 05:02:52;;;;;;;13.57;7.17;;;;;;;5.56;100.00;100951.03;7391896;19;20415;-45
2023/11/21 05:05:22;;;;;;;14.27;7.67;;;;;;;5.57;100.00;100947.69;7368512;19;20423;-47
2023/11/21 05:07:52;;;;;;;18.87;7.33;;;;;;;5.49;100.00;100940.41;7391741;19;20443;-47
2023/11/21 05:10:24;;;;;;;30.40;10.13;;;;;;;5.60;100.00;100945.34;7367070;19;20419;-46
2023/11/21 05:12:53;;;;;;;23.67;11.97;;;;;;;5.59;100.00;100947.00;7391822;19;20432;-44
2023/11/21 05:15:23;;;;;;;16.80;8.20;;;;;;;5.49;100.00;100940.41;7366655;19;20463;-46
2023/11/21 05:17:53;;;;;;;19.70;9.47;;;;;;;5.61;100.00;100942.91;7390851;19;20981;-44
2023/11/21 05:20:23;;;;;;;15.40;7.23;;;;;;;5.57;100.00;100947.69;7368817;19;20428;-43
2023/11/21 05:22:53;;;;;;;14.67;7.83;;;;;;;5.61;100.00;100955.69;7398413;19;20426;-44
2023/11/21 05:25:25;;;;;;;12.83;6.93;;;;;;;5.57;100.00;100942.56;7375640;19;20930;-45
2023/11/21 05:27:55;;;;;;;16.10;7.40;;;;;;;5.52;100.00;100940.63;7398024;19;20439;-47
2023/11/21 05:30:25;;;;;;;15.73;7.67;;;;;;;5.53;100.00;100942.38;7374794;19;20423;-44
2023/11/21 05:32:54;;;;;;;12.17;7.10;;;;;;;5.57;100.00;100951.16;7398096;19;20418;-45
2023/11/21 05:35:24;;;;;;;20.57;10.07;;;;;;;5.61;100.00;100955.69;7374882;19;20467;-43
2023/11/21 05:37:54;;;;;;;17.53;7.67;;;;;;;5.53;100.00;100952.63;7397457;19;20443;-43
2023/11/21 05:40:29;;;;;;;15.80;8.10;;;;;;;5.47;100.00;100947.09;7374288;19;20423;-44
2023/11/21 05:42:59;;;;;;;15.20;7.83;;;;;;;5.51;100.00;100956.78;7398355;19;20435;-42
2023/11/21 05:45:29;;;;;;;12.93;7.20;;;;;;;5.44;100.00;100954.56;7374519;19;20438;-46
2023/11/21 05:48:01;;;;;;;17.20;7.70;;;;;;;5.47;100.00;100962.47;7397279;19;20439;-45
2023/11/21 05:50:30;;;;;;;23.57;10.70;;;;;;;5.52;100.00;100966.22;7374316;19;20489;-45
2023/11/21 05:53:00;;;;;;;26.17;11.57;;;;;;;5.51;100.00;100973.78;7398182;19;20471;-42
2023/11/21 05:55:32;;;;;;;15.90;8.50;;;;;;;5.52;100.00;100978.13;7374292;19;20454;-44
2023/11/21 05:58:02;;;;;;;15.50;7.77;;;;;;;5.36;100.00;100961.75;7395389;19;20439;-42
2023/11/21 06:00:33;;;;;;;13.10;7.70;;;;;;;5.42;100.00;100962.97;7374142;19;20430;-43
2023/11/21 06:03:03;;;;;;;16.43;8.30;;;;;;;5.33;100.00;100963.22;7395778;19;20411;-43
2023/11/21 06:05:33;;;;;;;18.07;7.40;;;;;;;5.32;100.00;100964.03;7374384;19;20974;-42
2023/11/21 06:08:03;;;;;;;18.27;8.60;;;;;;;5.37;100.00;100965.19;7397476;19;20559;-42
2023/11/21 06:10:35;;;;;;;13.13;7.63;;;;;;;5.36;100.00;100965.97;7373585;19;20440;-43
2023/11/21 06:13:07;;;;;;;16.10;8.00;;;;;;;5.36;100.00;100969.44;7395512;19;20404;-42
2023/11/21 06:15:36;;;;;;;10.13;6.27;;;;;;;5.31;100.00;100970.81;7372202;19;20451;-44
2023/11/21 06:18:09;;;;;;;17.10;8.03;;;;;;;5.30;100.00;100970.69;7395075;19;20804;-43
2023/11/21 06:20:43;;;;;;;16.93;7.67;;;;;;;5.42;100.00;100983.44;7373657;19;20433;-44
2023/11/21 06:23:13;;;;;;;11.07;7.07;;;;;;;5.44;100.00;100997.22;7394474;19;20431;-45
2023/11/21 06:25:46;;;;;;;11.00;7.10;;;;;;;5.43;100.00;100998.88;7374251;19;20431;-44
2023/11/21 06:28:17;;;;;;;16.90;8.93;;;;;;;5.39;100.00;101010.56;7394789;19;20454;-44
2023/11/21 06:30:48;;;;;;;13.53;6.87;;;;;;;5.37;100.00;101021.50;7373570;19;20427;-44
2023/11/21 06:33:18;;;;;;;13.57;7.40;;;;;;;5.32;100.00;101022.88;7397452;19;20418;-44
2023/11/21 06:35:48;;;;;;;24.10;10.77;;;;;;;5.32;100.00;101025.44;7366671;19;20965;-43
2023/11/21 06:38:17;;;;;;;25.57;11.03;;;;;;;5.48;100.00;101041.00;7387820;19;20470;-42
2023/11/21 06:40:50;;;;;;;22.80;11.00;;;;;;;5.48;100.00;101046.13;7365015;19;21030;-42
2023/11/21 06:43:21;;;;;;;26.97;11.70;;;;;;;5.54;100.00;101051.66;7386355;19;20418;-43
2023/11/21 06:45:51;;;;;;;21.20;10.23;;;;;;;5.51;100.00;101048.00;7364136;19;20522;-43
2023/11/21 06:48:21;;;;;;;16.87;9.07;;;;;;;5.52;100.00;101043.00;7386065;19;20439;-43
2023/11/21 06:50:52;;;;;;;31.77;12.93;;;;;;;5.50;100.00;101047.13;7361666;19;20434;-43
2023/11/21 06:53:22;;;;;;;13.10;7.43;;;;;;;5.49;100.00;101040.22;7385513;19;20414;-43
2023/11/21 06:55:54;;;;;;;28.63;13.30;;;;;;;5.48;100.00;101042.72;7364443;19;20448;-44
2023/11/21 06:58:24;;;;;;;33.23;15.07;;;;;;;5.44;100.00;101044.16;7385414;19;20439;-42
2023/11/21 07:00:54;;;;;;;21.57;9.93;;;;;;;5.53;100.00;101044.78;7365233;19;20435;-45
2023/11/21 07:03:26;;;;;;;16.30;8.60;;;;;;;5.58;100.00;101046.78;7386266;19;20410;-46
2023/11/21 07:05:55;;;;;;;15.43;7.27;;;;;;;5.53;100.00;101046.44;7363344;19;20514;-43
2023/11/21 07:08:25;;;;;;;21.03;10.10;;;;;;;5.65;100.00;101052.38;7384784;19;20499;-44
2023/11/21 07:10:57;;;;;;;14.50;7.60;;;;;;;5.64;100.00;101062.53;7362582;19;20799;-45
2023/11/21 07:13:27;;;;;;;14.93;7.93;;;;;;;5.63;100.00;101050.50;7371282;19;20427;-43
2023/11/21 07:15:56;;;;;;;13.53;7.10;;;;;;;5.73;100.00;101047.78;7384725;19;20436;-46
2023/11/21 07:18:24;;;;;;;23.00;11.17;;;;;;;5.67;100.00;101060.16;7381110;19;20439;-43
2023/11/21 07:20:53;;;;;;;13.93;7.63;;;;;;;5.62;100.00;101064.09;7381596;19;20407;-42
2023/11/21 07:23:24;;;;;;;14.90;7.77;;;;;;;5.60;100.00;101070.78;7385714;19;20396;-45
2023/11/21 07:25:53;;;;;;;37.60;16.23;;;;;;;5.58;100.00;101067.25;7362986;19;20431;-42
2023/11/21 07:28:26;;;;;;;40.83;18.37;;;;;;;5.64;100.00;101072.78;7384684;19;20993;-44
2023/11/21 07:30:56;;;;;;;16.93;7.43;;;;;;;5.54;100.00;101069.59;7361684;19;20518;-44
2023/11/21 07:33:26;;;;;;;57.73;21.77;;;;;;;5.67;100.00;101084.09;7386618;19;20441;-45
2023/11/21 07:35:55;;;;;;;13.37;6.60;;;;;;;5.74;100.00;101080.25;7362655;19;20511;-45
2023/11/21 07:38:25;;;;;;;11.70;6.07;;;;;;;5.62;100.00;101077.78;7383827;19;20435;-46
2023/11/21 07:40:54;;;;;;;11.67;6.50;;;;;;;5.58;100.00;101080.03;7362675;19;20510;-45
2023/11/21 07:43:27;;;;;;;11.80;5.83;;;;;;;5.49;100.00;101086.28;7383643;19;20411;-43
2023/11/21 07:45:56;;;;;;;12.93;5.93;;;;;;;5.45;100.00;101086.00;7363790;19;20435;-42
2023/11/21 07:48:26;;;;;;;12.93;7.40;;;;;;;5.54;100.00;101091.75;7382584;19;20431;-42
2023/11/21 07:50:55;;;;;;;10.70;6.37;;;;;;;5.47;100.00;101100.66;7382872;19;20420;-45
2023/11/21 07:53:25;;;;;;;14.80;7.60;;;;;;;5.37;100.00;101104.28;7386181;19;20415;-47
2023/11/21 07:55:54;;;;;;;14.00;7.93;;;;;;;5.39;100.00;101106.94;7363259;19;20510;-45
2023/11/21 07:58:27;;;;;;;15.40;7.30;;;;;;;5.43;100.00;101114.03;7382457;19;20448;-42
2023/11/21 08:00:56;;;;;;;13.67;7.10;;;;;;;5.39;100.00;101122.31;7359783;19;20446;-44
2023/11/21 08:03:26;;;;;;;14.87;7.67;;;;;;;5.36;100.00;101132.31;7376759;19;20427;-41
2023/11/21 08:05:56;;;;;;;13.57;6.50;;;;;;;5.34;100.00;101139.00;7380044;19;20404;-43
2023/11/21 08:08:26;;;;;;;10.83;5.73;;;;;;;5.27;100.00;101143.69;7392640;19;20439;-42
2023/11/21 08:10:58;;;;;;;13.63;7.27;;;;;;;5.29;100.00;101158.25;7371304;19;20464;-42
2023/11/21 08:13:31;;;;;;;11.97;5.87;;;;;;;5.34;100.00;101174.84;7369451;19;20404;-41
2023/11/21 08:16:04;;;;;;;12.70;6.80;;;;;;;5.37;100.00;101182.72;7392785;19;20432;-42
2023/11/21 08:18:35;;;;;;;12.73;6.80;;;;;;;5.23;100.00;101182.63;7369808;19;20967;-42
2023/11/21 08:21:05;;;;;;;12.50;6.77;;;;;;;5.29;100.00;101183.84;7389603;19;20399;-42
2023/11/21 08:23:34;;;;;;;13.60;6.37;;;;;;;5.30;100.00;101190.75;7370403;19;20420;-44
2023/11/21 08:26:05;;;;;;;12.80;6.10;;;;;;;5.30;100.00;101198.41;7389668;19;20404;-41
2023/11/21 08:28:37;;;;;;;11.27;5.60;;;;;;;5.30;100.00;101196.75;7369821;19;20481;-41
2023/11/21 08:31:07;;;;;;;11.00;6.10;;;;;;;5.34;100.00;101196.19;7390009;19;20947;-42
2023/11/21 08:33:37;;;;;;;9.87;5.93;;;;;;;5.37;100.00;101205.75;7370035;19;20474;-41
2023/11/21 08:36:10;;;;;;;9.80;5.50;;;;;;;5.36;100.00;101214.19;7390072;19;20487;-44
2023/11/21 08:38:41;;;;;;;8.40;5.10;;;;;;;5.34;100.00;101226.00;7369112;19;20780;-43
2023/11/21 08:41:10;;;;;;;14.03;5.50;;;;;;;5.32;100.00;101237.81;7389577;19;20545;-41
2023/11/21 08:43:43;;;;;;;12.77;6.50;;;;;;;5.35;100.00;101246.59;7369721;19;20410;-43
2023/11/21 08:46:12;;;;;;;9.53;5.30;;;;;;;5.26;100.00;101254.50;7390077;19;20403;-44
2023/11/21 08:48:43;;;;;;;10.13;4.47;;;;;;;5.21;100.00;101255.84;7368917;19;20451;-42
2023/11/21 08:51:14;;;;;;;7.97;4.27;;;;;;;5.18;100.00;101267.53;7389691;19;20803;-47
2023/11/21 08:53:44;;;;;;;4.77;3.57;;;;;;;5.17;100.00;101284.53;7369231;19;20428;-42
2023/11/21 08:56:15;;;;;;;6.97;3.70;;;;;;;5.20;100.00;101291.53;7392834;19;20467;-45
2023/11/21 08:58:47;;;;;;;7.13;3.60;;;;;;;5.14;100.00;101299.69;7374796;19;20435;-46
2023/11/21 09:01:17;;;;;;;6.53;3.07;;;;;;;5.19;100.00;101308.59;7399401;19;20958;-42
2023/11/21 09:03:47;;;;;;;5.90;3.50;;;;;;;5.23;100.00;101328.47;7378490;19;20506;-42
2023/11/21 09:06:16;;;;;;;7.60;3.70;;;;;;;5.21;100.00;101335.16;7396142;19;20406;-43
2023/11/21 09:08:46;;;;;;;6.53;3.50;;;;;;;5.17;100.00;101353.63;7375673;19;20748;-45
2023/11/21 09:11:16;;;;;;;7.30;3.90;;;;;;;5.19;100.00;101364.88;7395647;19;20403;-42
2023/11/21 09:13:48;;;;;;;4.90;3.03;;;;;;;5.20;100.00;101387.13;7376518;19;20817;-42
2023/11/21 09:16:18;;;;;;;6.30;3.67;;;;;;;5.24;100.00;101409.56;7396025;19;20935;-44
2023/11/21 09:18:47;;;;;;;7.53;3.33;;;;;;;5.14;100.00;101419.91;7375508;19;20426;-41
2023/11/21 09:21:17;;;;;;;6.57;3.30;;;;;;;5.16;100.00;101437.91;7398394;19;20406;-43
2023/11/21 09:23:47;;;;;;;4.60;2.93;;;;;;;5.14;100.00;101448.06;7375258;19;20471;-45
2023/11/21 09:26:17;;;;;;;4.80;2.80;;;;;;;5.14;100.00;101453.19;7395778;19;20415;-43
2023/11/21 09:28:49;;;;;;;8.80;3.23;;;;;;;5.16;100.00;101451.63;7374768;19;20480;-43
2023/11/21 09:31:22;;;;;;;7.47;3.87;;;;;;;5.10;100.00;101449.50;7395661;19;20407;-41
2023/11/21 09:33:52;;;;;;;6.70;3.93;;;;;;;5.09;100.00;101457.06;7377502;19;20401;-42
2023/11/21 09:36:24;;;;;;;6.87;3.77;;;;;;;5.10;100.00;101463.94;7395709;19;20400;-44
2023/11/21 09:38:55;;;;;;;6.07;3.70;;;;;;;5.08;100.00;101468.06;7373943;19;21138;-42
2023/11/21 09:41:34;;;;;;;5.43;3.43;;;;;;;5.12;100.00;101470.97;7398769;19;20414;-42
2023/11/21 09:44:11;;;;;;;7.23;3.93;;;;;;;5.19;100.00;101482.56;7373643;19;20443;-41
2023/11/21 09:46:42;;;;;;;8.80;4.43;;;;;;;5.14;100.00;101489.00;7396082;19;20403;-44
2023/11/21 09:49:14;;;;;;;6.33;4.13;;;;;;;5.02;100.00;101490.63;7372487;19;20435;-41
2023/11/21 09:51:45;;;;;;;6.60;4.10;;;;;;;5.09;100.00;101496.28;7398525;19;20418;-42
2023/11/21 09:54:19;;;;;;;7.00;4.10;;;;;;;5.05;100.00;101493.41;7373498;19;21010;-43
2023/11/21 09:56:50;;;;;;;6.80;3.60;;;;;;;4.98;100.00;101487.81;7398267;19;20435;-40
2023/11/21 09:59:22;;;;;;;8.27;4.50;;;;;;;5.11;100.00;101481.06;7367915;19;20447;-41
2023/11/21 10:01:52;;;;;;;7.50;4.10;;;;;;;5.10;100.00;101466.50;7396289;19;20420;-44
2023/11/21 10:04:22;;;;;;;7.77;3.30;;;;;;;5.11;100.00;101443.59;7374061;19;20431;-42
2023/11/21 10:06:53;;;;;;;9.33;4.03;;;;;;;5.05;100.00;101406.44;7395423;19;20415;-43
2023/11/21 10:09:23;;;;;;;4.37;3.03;;;;;;;5.11;100.00;101381.31;7372702;19;20419;-42
2023/11/21 10:11:53;;;;;;;4.63;2.60;;;;;;;5.22;100.00;101365.06;7395881;19;20411;-43
2023/11/21 10:14:28;;;;;;;5.53;3.10;;;;;;;5.38;100.00;101363.63;7372317;19;20440;-42
2023/11/21 10:16:59;;;;;;;5.00;3.00;;;;;;;5.24;100.00;101354.97;7396249;19;20407;-42
2023/11/21 10:19:29;;;;;;;5.27;2.97;;;;;;;5.24;100.00;101342.16;7372846;19;20424;-43
2023/11/21 10:22:00;;;;;;;6.67;3.10;;;;;;;5.16;100.00;101317.66;7395740;19;20947;-40
2023/11/21 10:24:29;;;;;;;4.57;2.63;;;;;;;5.17;100.00;101322.03;7374909;19;20434;-42
2023/11/21 10:27:09;;;;;;;6.07;3.07;;;;;;;5.11;100.00;101304.56;7393631;19;20945;-42
2023/11/21 10:29:42;;;;;;;4.37;2.77;;;;;;;5.13;100.00;101308.13;7372979;19;20442;-41
2023/11/21 10:32:11;;;;;;;5.77;3.60;;;;;;;5.20;100.00;101318.03;7394856;19;20426;-42
2023/11/21 10:34:41;;;;;;;4.10;2.60;;;;;;;5.25;100.00;101320.91;7372602;19;20838;-41
2023/11/21 10:37:15;;;;;;;4.33;2.90;;;;;;;5.26;100.00;101321.03;7388142;19;20958;-41
2023/11/21 10:39:46;;;;;;;3.57;2.50;;;;;;;5.18;100.00;101311.91;7364532;19;20511;-41
2023/11/21 10:42:16;;;;;;;3.30;2.60;;;;;;;5.14;100.00;101309.91;7385842;19;20849;-42
2023/11/21 10:44:48;;;;;;;4.00;2.80;;;;;;;5.24;100.00;101312.34;7360144;19;20542;-42
2023/11/21 10:47:19;;;;;;;4.70;3.00;;;;;;;5.18;100.00;101311.03;7387366;19;20434;-41
2023/11/21 10:49:52;;;;;;;5.00;3.60;;;;;;;5.17;100.00;101315.25;7364920;19;20809;-41
2023/11/21 10:52:22;;;;;;;4.67;3.20;;;;;;;5.21;100.00;101319.81;7386858;19;20403;-47
2023/11/21 10:54:52;;;;;;;9.33;4.30;;;;;;;5.33;100.00;101324.03;7366584;19;20434;-42
2023/11/21 10:57:23;;;;;;;6.83;3.50;;;;;;;5.22;100.00;101319.03;7386645;19;20423;-42
2023/11/21 10:59:57;;;;;;;11.33;5.50;;;;;;;5.34;100.00;101313.03;7363708;19;20427;-41
2023/11/21 11:02:27;;;;;;;5.90;3.20;;;;;;;5.22;100.00;101311.34;7388075;19;20950;-42
2023/11/21 11:05:00;;;;;;;7.57;3.50;;;;;;;5.25;100.00;101298.78;7365320;19;20415;-41
2023/11/21 11:07:33;;;;;;;6.47;3.93;;;;;;;5.27;100.00;101304.91;7387484;19;20434;-41
2023/11/21 11:10:04;;;;;;;9.70;3.80;;;;;;;5.36;100.00;101312.34;7363156;19;20443;-42
2023/11/21 11:12:33;;;;;;;12.97;6.10;;;;;;;5.43;100.00;101311.09;7388546;19;20408;-41
2023/11/21 11:15:08;;;;;;;6.40;3.67;;;;;;;5.27;100.00;101299.78;7363488;19;20821;-41
2023/11/21 11:17:41;;;;;;;17.53;8.67;;;;;;;5.27;100.00;101299.78;7386268;19;20519;-41
2023/11/21 11:20:13;;;;;;;9.30;4.50;;;;;;;5.27;100.00;101304.91;7362091;19;21396;-41
2023/11/21 11:22:46;;;;;;;14.80;7.70;;;;;;;5.34;100.00;101315.56;7386898;19;20431;-42
2023/11/21 11:25:27;;;;;;;7.23;3.47;;;;;;;5.27;100.00;101311.69;7364969;19;20803;-41
2023/11/21 11:28:03;;;;;;;9.00;4.17;;;;;;;5.19;100.00;101313.69;7387227;19;20423;-43
2023/11/21 11:30:45;;;;;;;12.13;5.50;;;;;;;5.30;100.00;101321.25;7364199;19;20431;-43
2023/11/21 11:33:25;;;;;;;19.87;8.90;;;;;;;5.31;100.00;101325.56;7387346;19;20403;-41